Route Details

Aircraft Information
Group: European Fleet
Types: A30F, A31F, B738
Route Data
Distance: 584nm
Duration: 1h 50m
Origin METAR: EDDK 072320Z AUTO VRB01KT CAVOK M03/M06 Q1039 NOSIG
Dest. METAR: LIRF 072320Z 03003KT 340V080 CAVOK 01/M07 Q1031 NOSIG
Freight Data
(for Feb 7, 2023)
Load Factor:
44%
Manifested Cargo: 27,073lbs
Financial History
Total Freight: 223,326lbs
Average Load: 0lbs/flt
Fuel Used: 76,898lbs
Avg. Fuel Used: 0lbs/flt
Fuel Expense: $36,333
Avg. Fuel Expense: $0
Avg. Fuel Cost: $0/lbs
Total Gross Income: $434,452
Pilot Pay: $1,026
Total Expenses: $70,062
Total Revenue: $363,715
Average Revenue: $0

Capitol Logistics 569




EDDK
Cologne Bonn Airport
Cologne, DE
LIRF
Leonardo da Vinci International Airport
Rome, IT